createdAt,value
2019-03-11T00:00:22.870Z,795.67
2019-03-11T00:00:27.169Z,795.65
2019-03-11T00:00:31.469Z,795.68
2019-03-11T00:00:35.839Z,795.66
2019-03-11T00:00:40.139Z,795.76
2019-03-11T00:00:44.435Z,795.74
2019-03-11T00:00:48.731Z,795.77
2019-03-11T00:00:52.937Z,795.76
2019-03-11T00:00:57.236Z,795.75
2019-03-11T00:01:01.536Z,795.73
2019-03-11T00:01:05.991Z,795.73
2019-03-11T00:01:10.297Z,795.77
2019-03-11T00:01:14.596Z,795.74
2019-03-11T00:01:18.789Z,795.75
2019-03-11T00:01:23.079Z,795.72
2019-03-11T00:01:27.368Z,795.74
2019-03-11T00:01:31.658Z,795.71
2019-03-11T00:01:35.963Z,795.74
2019-03-11T00:01:40.257Z,795.74
2019-03-11T00:01:44.564Z,795.72
2019-03-11T00:01:48.854Z,795.71
2019-03-11T00:01:53.141Z,795.72
2019-03-11T00:01:57.445Z,795.73
2019-03-11T00:02:01.801Z,795.72
2019-03-11T00:02:06.112Z,795.73
2019-03-11T00:02:10.419Z,795.73
2019-03-11T00:02:14.715Z,795.65
2019-03-11T00:02:18.999Z,795.67
2019-03-11T00:02:23.303Z,795.69
2019-03-11T00:02:27.609Z,795.71
2019-03-11T00:02:31.909Z,795.72
2019-03-11T00:02:36.198Z,795.7
2019-03-11T00:02:40.400Z,795.71
2019-03-11T00:02:44.689Z,795.73
2019-03-11T00:02:49.034Z,795.75
2019-03-11T00:02:53.331Z,795.75
2019-03-11T00:02:57.633Z,795.73
2019-03-11T00:03:01.920Z,795.7
2019-03-11T00:03:06.121Z,795.66
2019-03-11T00:03:10.231Z,795.71
2019-03-11T00:03:14.528Z,795.75
2019-03-11T00:03:18.818Z,795.71
2019-03-11T00:03:23.111Z,795.71
2019-03-11T00:03:27.401Z,795.69
2019-03-11T00:03:31.693Z,795.71
2019-03-11T00:03:36.357Z,795.73
2019-03-11T00:03:40.643Z,795.73
2019-03-11T00:03:44.935Z,795.72
2019-03-11T00:03:49.269Z,795.71
2019-03-11T00:03:53.560Z,795.74
2019-03-11T00:03:57.869Z,795.7
2019-03-11T00:04:02.155Z,795.67
2019-03-11T00:04:09.146Z,795.66
2019-03-11T00:04:20.773Z,795.65
2019-03-11T00:04:29.566Z,795.66
2019-03-11T00:04:33.761Z,795.62
2019-03-11T00:04:38.047Z,795.58
2019-03-11T00:04:42.372Z,795.62
2019-03-11T00:04:46.723Z,795.63
2019-03-11T00:04:51.017Z,795.62
2019-03-11T00:04:55.306Z,795.6
2019-03-11T00:04:59.602Z,795.63
2019-03-11T00:05:03.902Z,795.63
2019-03-11T00:05:08.190Z,795.64
2019-03-11T00:05:12.495Z,795.6
2019-03-11T00:05:16.792Z,795.58
2019-03-11T00:05:21.025Z,795.61
2019-03-11T00:05:25.319Z,795.59
2019-03-11T00:05:29.606Z,795.57
2019-03-11T00:05:34.115Z,795.65
2019-03-11T00:05:38.438Z,795.62
2019-03-11T00:05:42.764Z,795.62
2019-03-11T00:05:47.063Z,795.58
2019-03-11T00:05:51.351Z,795.58
2019-03-11T00:05:55.640Z,795.62
2019-03-11T00:05:59.933Z,795.57
2019-03-11T00:06:04.239Z,795.61
2019-03-11T00:06:08.576Z,795.6
2019-03-11T00:06:12.871Z,795.53
2019-03-11T00:06:17.157Z,795.57
2019-03-11T00:06:21.455Z,795.6
2019-03-11T00:06:25.658Z,795.58
2019-03-11T00:06:29.945Z,795.59
2019-03-11T00:06:34.244Z,795.58
2019-03-11T00:06:38.544Z,795.53
2019-03-11T00:06:42.849Z,795.57
2019-03-11T00:06:47.151Z,795.55
2019-03-11T00:06:51.439Z,795.56
2019-03-11T00:06:55.703Z,795.57
2019-03-11T00:06:59.992Z,795.55
2019-03-11T00:07:04.380Z,795.56
2019-03-11T00:07:08.732Z,795.53
2019-03-11T00:07:12.934Z,795.57
2019-03-11T00:07:17.133Z,795.53
2019-03-11T00:07:21.419Z,795.52
2019-03-11T00:07:25.773Z,795.51
2019-03-11T00:07:29.772Z,795.49
2019-03-11T00:07:33.968Z,795.45
2019-03-11T00:07:38.262Z,795.48
2019-03-11T00:07:42.464Z,795.44
2019-03-11T00:07:46.746Z,795.47
2019-03-11T00:07:51.050Z,795.47
2019-03-11T00:07:55.336Z,795.47
2019-03-11T00:07:59.619Z,795.43
2019-03-11T00:08:03.916Z,795.41
2019-03-11T00:08:08.219Z,795.45
2019-03-11T00:08:12.580Z,795.42
2019-03-11T00:08:16.883Z,795.41
2019-03-11T00:08:21.178Z,795.41
2019-03-11T00:08:25.463Z,795.4
2019-03-11T00:08:29.784Z,795.4
2019-03-11T00:08:34.070Z,795.37
2019-03-11T00:08:38.360Z,795.35
2019-03-11T00:08:42.650Z,795.37
2019-03-11T00:08:46.942Z,795.34
2019-03-11T00:08:51.232Z,795.3
2019-03-11T00:08:55.427Z,795.31
2019-03-11T00:08:59.715Z,795.24
2019-03-11T00:09:03.903Z,795.26
2019-03-11T00:09:08.192Z,795.25
2019-03-11T00:09:12.486Z,795.26
2019-03-11T00:09:16.772Z,795.21
2019-03-11T00:09:21.113Z,795.18
2019-03-11T00:09:25.303Z,795.2
2019-03-11T00:09:29.589Z,795.17
2019-03-11T00:09:33.886Z,795.15
2019-03-11T00:09:38.179Z,795.14
2019-03-11T00:09:42.503Z,795.19
2019-03-11T00:09:46.793Z,795.16
2019-03-11T00:09:51.080Z,795.15
2019-03-11T00:09:55.363Z,795.07
2019-03-11T00:09:59.672Z,795.06
2019-03-11T00:10:04.122Z,795.03
2019-03-11T00:10:08.416Z,794.99
2019-03-11T00:10:12.671Z,795.07
2019-03-11T00:10:16.973Z,795.05
2019-03-11T00:10:21.245Z,795.05
2019-03-11T00:10:25.538Z,795.04
2019-03-11T00:10:29.825Z,795.01
2019-03-11T00:10:34.137Z,795.03
2019-03-11T00:10:38.429Z,795
2019-03-11T00:10:42.622Z,795
2019-03-11T00:10:46.989Z,794.98
2019-03-11T00:10:51.276Z,794.99
2019-03-11T00:10:55.560Z,794.91
2019-03-11T00:10:59.652Z,794.96
2019-03-11T00:11:03.940Z,794.94
2019-03-11T00:11:08.223Z,794.89
2019-03-11T00:11:12.525Z,794.85
2019-03-11T00:11:16.618Z,794.9
2019-03-11T00:11:20.906Z,794.88
2019-03-11T00:11:25.196Z,794.86
2019-03-11T00:11:29.487Z,794.9
2019-03-11T00:11:33.674Z,794.87
2019-03-11T00:11:37.977Z,794.91
2019-03-11T00:11:42.290Z,794.87
2019-03-11T00:11:46.582Z,794.81
2019-03-11T00:11:50.885Z,794.81
2019-03-11T00:11:55.170Z,794.84
2019-03-11T00:11:59.359Z,794.85
2019-03-11T00:12:03.546Z,794.85
2019-03-11T00:12:07.853Z,794.83
2019-03-11T00:12:11.958Z,794.85
2019-03-11T00:12:16.250Z,794.77
2019-03-11T00:12:20.445Z,794.83
2019-03-11T00:12:24.739Z,794.82
2019-03-11T00:12:29.035Z,794.83
2019-03-11T00:12:33.327Z,794.83
2019-03-11T00:12:37.623Z,794.83
2019-03-11T00:12:41.936Z,794.79
2019-03-11T00:12:46.228Z,794.79
2019-03-11T00:12:50.423Z,794.8
2019-03-11T00:12:54.713Z,794.81
2019-03-11T00:12:59.001Z,794.82
2019-03-11T00:13:03.400Z,794.77
2019-03-11T00:13:07.693Z,794.8
2019-03-11T00:13:11.981Z,794.78
2019-03-11T00:13:16.267Z,794.8
2019-03-11T00:13:20.556Z,794.79
2019-03-11T00:13:24.846Z,794.79
2019-03-11T00:13:29.137Z,794.76
2019-03-11T00:13:33.423Z,794.72
2019-03-11T00:13:37.714Z,794.69
2019-03-11T00:13:42.018Z,794.7
2019-03-11T00:13:46.209Z,794.73
2019-03-11T00:13:50.407Z,794.74
2019-03-11T00:13:54.694Z,794.72
2019-03-11T00:13:58.906Z,794.72
2019-03-11T00:14:03.203Z,794.71
2019-03-11T00:14:07.497Z,794.68
2019-03-11T00:14:11.791Z,794.64
2019-03-11T00:14:16.100Z,794.65
2019-03-11T00:14:20.392Z,794.58
2019-03-11T00:14:24.681Z,794.61
2019-03-11T00:14:28.975Z,794.55
2019-03-11T00:14:33.264Z,794.57
2019-03-11T00:14:37.574Z,794.57
2019-03-11T00:14:41.888Z,794.56
2019-03-11T00:14:46.123Z,794.46
2019-03-11T00:14:50.414Z,794.5
2019-03-11T00:14:54.710Z,794.51
2019-03-11T00:14:58.926Z,794.4
2019-03-11T00:15:03.218Z,794.43
2019-03-11T00:15:07.570Z,794.43
2019-03-11T00:15:11.866Z,794.37
2019-03-11T00:15:16.176Z,794.38
2019-03-11T00:15:20.373Z,794.44
2019-03-11T00:15:24.666Z,794.38
2019-03-11T00:15:28.875Z,794.39
2019-03-11T00:15:33.178Z,794.36
2019-03-11T00:15:37.478Z,794.35
2019-03-11T00:15:41.776Z,794.35
2019-03-11T00:15:46.081Z,794.33
2019-03-11T00:15:50.373Z,794.3
2019-03-11T00:15:54.660Z,794.32
2019-03-11T00:15:58.947Z,794.31
2019-03-11T00:16:03.368Z,794.29
2019-03-11T00:16:07.593Z,794.25
2019-03-11T00:16:11.791Z,794.24
2019-03-11T00:16:15.986Z,794.25
2019-03-11T00:16:20.194Z,794.21
2019-03-11T00:16:24.460Z,794.24
2019-03-11T00:16:28.660Z,794.23
2019-03-11T00:16:32.957Z,794.2
2019-03-11T00:16:37.248Z,794.18
2019-03-11T00:16:41.538Z,794.17
2019-03-11T00:16:45.730Z,794.13
2019-03-11T00:16:50.038Z,794.17
2019-03-11T00:16:54.349Z,794.14
2019-03-11T00:16:58.644Z,794.12
2019-03-11T00:17:02.840Z,794.13
2019-03-11T00:17:07.126Z,794.11
2019-03-11T00:17:11.422Z,794.09
2019-03-11T00:17:15.720Z,794.07
2019-03-11T00:17:20.011Z,793.98
2019-03-11T00:17:24.351Z,794
2019-03-11T00:17:28.644Z,793.99
2019-03-11T00:17:32.959Z,793.98
2019-03-11T00:17:37.145Z,794
2019-03-11T00:17:41.519Z,793.98
2019-03-11T00:17:45.815Z,793.98
2019-03-11T00:17:50.000Z,793.97
2019-03-11T00:17:54.303Z,794.01
2019-03-11T00:17:58.589Z,794
2019-03-11T00:18:02.782Z,794.01
2019-03-11T00:18:07.130Z,793.97
2019-03-11T00:18:11.418Z,793.97
2019-03-11T00:18:15.707Z,793.96
2019-03-11T00:18:19.993Z,793.94
2019-03-11T00:18:24.286Z,793.95
2019-03-11T00:18:28.575Z,793.94
2019-03-11T00:18:32.860Z,793.98
2019-03-11T00:18:37.153Z,793.99
2019-03-11T00:18:41.447Z,794
2019-03-11T00:18:45.731Z,793.99
2019-03-11T00:18:50.045Z,793.94
2019-03-11T00:18:54.250Z,793.95
2019-03-11T00:18:58.446Z,793.96
2019-03-11T00:19:02.738Z,793.92
2019-03-11T00:19:07.033Z,793.96
2019-03-11T00:19:11.319Z,793.94
2019-03-11T00:19:15.604Z,793.89
2019-03-11T00:19:19.890Z,793.9
2019-03-11T00:19:24.082Z,793.91
2019-03-11T00:19:28.463Z,793.92
2019-03-11T00:19:32.747Z,793.92
2019-03-11T00:19:37.041Z,793.88
2019-03-11T00:19:41.237Z,793.86
2019-03-11T00:19:45.534Z,793.8
2019-03-11T00:19:49.829Z,793.8
2019-03-11T00:19:54.029Z,793.79
2019-03-11T00:19:58.350Z,793.77
2019-03-11T00:20:02.637Z,793.76
2019-03-11T00:20:06.941Z,793.75
2019-03-11T00:20:11.135Z,793.71
2019-03-11T00:20:15.432Z,793.66
2019-03-11T00:20:19.635Z,793.71
2019-03-11T00:20:23.927Z,793.66
2019-03-11T00:20:28.220Z,793.61
2019-03-11T00:20:32.519Z,793.62
2019-03-11T00:20:36.810Z,793.6
2019-03-11T00:20:41.000Z,793.6
2019-03-11T00:20:45.187Z,793.62
2019-03-11T00:20:49.541Z,793.61
2019-03-11T00:20:53.730Z,793.57
2019-03-11T00:20:58.020Z,793.6
2019-03-11T00:21:02.325Z,793.57
2019-03-11T00:21:06.676Z,793.55
2019-03-11T00:21:10.974Z,793.52
2019-03-11T00:21:14.977Z,793.52
2019-03-11T00:21:19.165Z,793.51
2019-03-11T00:21:23.481Z,793.48
2019-03-11T00:21:27.680Z,793.46
2019-03-11T00:21:32.050Z,793.45
2019-03-11T00:21:36.360Z,793.41
2019-03-11T00:21:40.655Z,793.37
2019-03-11T00:21:44.944Z,793.43
2019-03-11T00:21:49.245Z,793.38
2019-03-11T00:21:53.537Z,793.41
2019-03-11T00:21:57.827Z,793.37
2019-03-11T00:22:02.095Z,793.4
2019-03-11T00:22:06.404Z,793.36
2019-03-11T00:22:10.594Z,793.41
2019-03-11T00:22:14.887Z,793.38
2019-03-11T00:22:19.084Z,793.36
2019-03-11T00:22:23.370Z,793.39
2019-03-11T00:22:27.662Z,793.37
2019-03-11T00:22:31.948Z,793.34
2019-03-11T00:22:36.245Z,793.33
2019-03-11T00:22:40.463Z,793.31
2019-03-11T00:22:44.751Z,793.35
2019-03-11T00:22:49.044Z,793.33
2019-03-11T00:22:53.390Z,793.33
2019-03-11T00:22:57.682Z,793.35
2019-03-11T00:23:01.975Z,793.32
2019-03-11T00:23:06.300Z,793.35
2019-03-11T00:23:10.503Z,793.31
2019-03-11T00:23:14.798Z,793.31
2019-03-11T00:23:19.016Z,793.27
2019-03-11T00:23:23.308Z,793.27
2019-03-11T00:23:27.613Z,793.24
2019-03-11T00:23:31.909Z,793.27
2019-03-11T00:23:36.221Z,793.26
2019-03-11T00:23:40.523Z,793.27
2019-03-11T00:23:44.809Z,793.24
2019-03-11T00:23:49.103Z,793.25
2019-03-11T00:23:53.398Z,793.18
2019-03-11T00:23:57.682Z,793.2
2019-03-11T00:24:01.885Z,793.18
2019-03-11T00:24:06.175Z,793.15
2019-03-11T00:24:10.396Z,793.11
2019-03-11T00:24:14.685Z,793.14
2019-03-11T00:24:18.990Z,793.11
2019-03-11T00:24:23.191Z,793.14
2019-03-11T00:24:27.492Z,793.11
2019-03-11T00:24:31.682Z,793.1
2019-03-11T00:24:35.975Z,793.09
2019-03-11T00:24:40.265Z,793.11
2019-03-11T00:24:44.556Z,793.08
2019-03-11T00:24:48.844Z,793.06
2019-03-11T00:24:53.139Z,793.04
2019-03-11T00:24:57.439Z,793.06
2019-03-11T00:25:01.786Z,793.05
2019-03-11T00:25:06.128Z,793.06
2019-03-11T00:25:10.444Z,793.05
2019-03-11T00:25:14.650Z,793.06
2019-03-11T00:25:18.954Z,793.04
2019-03-11T00:25:23.238Z,793.02
2019-03-11T00:25:27.522Z,793.06
2019-03-11T00:25:31.815Z,793.04
2019-03-11T00:25:36.107Z,793.03
2019-03-11T00:25:40.400Z,793.02
2019-03-11T00:25:44.687Z,793.04
2019-03-11T00:25:48.978Z,793.04
2019-03-11T00:25:53.184Z,793.01
2019-03-11T00:25:57.471Z,793.01
2019-03-11T00:26:01.770Z,793.01
2019-03-11T00:26:05.963Z,793
2019-03-11T00:26:10.257Z,792.99
2019-03-11T00:26:14.550Z,792.96
2019-03-11T00:26:18.734Z,792.93
2019-03-11T00:26:23.027Z,792.92
2019-03-11T00:26:27.216Z,792.93
2019-03-11T00:26:31.511Z,792.92
2019-03-11T00:26:35.810Z,792.89
2019-03-11T00:26:40.200Z,792.9
2019-03-11T00:26:44.492Z,792.83
2019-03-11T00:26:48.685Z,792.87
2019-03-11T00:26:52.995Z,792.86
2019-03-11T00:26:57.187Z,792.85
2019-03-11T00:27:01.544Z,792.83
2019-03-11T00:27:05.736Z,792.73
2019-03-11T00:27:10.019Z,792.8
2019-03-11T00:27:14.308Z,792.78
2019-03-11T00:27:18.595Z,792.79
2019-03-11T00:27:22.882Z,792.74
2019-03-11T00:27:27.167Z,792.76
2019-03-11T00:27:31.467Z,792.77
2019-03-11T00:27:35.766Z,792.75
2019-03-11T00:27:40.049Z,792.76
2019-03-11T00:27:44.354Z,792.75
2019-03-11T00:27:48.645Z,792.66
2019-03-11T00:27:52.939Z,792.76
2019-03-11T00:27:57.225Z,792.72
2019-03-11T00:28:01.538Z,792.66
2019-03-11T00:28:05.832Z,792.72
2019-03-11T00:28:10.123Z,792.69
2019-03-11T00:28:14.424Z,792.69
2019-03-11T00:28:18.731Z,792.66
2019-03-11T00:28:23.060Z,792.69
2019-03-11T00:28:27.263Z,792.66
2019-03-11T00:28:31.552Z,792.65
2019-03-11T00:28:35.840Z,792.64
2019-03-11T00:28:40.129Z,792.63
2019-03-11T00:28:44.418Z,792.62
2019-03-11T00:28:48.707Z,792.61
2019-03-11T00:28:53.074Z,792.61
2019-03-11T00:28:57.363Z,792.63
2019-03-11T00:29:01.655Z,792.57
2019-03-11T00:29:05.996Z,792.59
2019-03-11T00:29:10.198Z,792.59
2019-03-11T00:29:14.420Z,792.6
2019-03-11T00:29:18.708Z,792.59
2019-03-11T00:29:23.015Z,792.6
2019-03-11T00:29:27.327Z,792.59
2019-03-11T00:29:31.623Z,792.59
2019-03-11T00:29:35.924Z,792.58
2019-03-11T00:29:40.213Z,792.57
2019-03-11T00:29:44.523Z,792.55
2019-03-11T00:29:51.480Z,792.55
2019-03-11T00:29:55.785Z,792.54
2019-03-11T00:30:00.072Z,792.55
2019-03-11T00:30:04.430Z,792.55
2019-03-11T00:30:08.744Z,792.51
2019-03-11T00:30:13.044Z,792.55
2019-03-11T00:30:17.250Z,792.51
2019-03-11T00:30:21.629Z,792.51
2019-03-11T00:30:26.005Z,792.49
2019-03-11T00:30:30.198Z,792.47
2019-03-11T00:30:34.493Z,792.53
2019-03-11T00:30:38.796Z,792.48
2019-03-11T00:30:43.094Z,792.45
2019-03-11T00:30:47.441Z,792.45
2019-03-11T00:30:51.762Z,792.47
2019-03-11T00:30:56.055Z,792.44
2019-03-11T00:31:00.353Z,792.51
2019-03-11T00:31:04.702Z,792.5
2019-03-11T00:31:09.000Z,792.48
2019-03-11T00:31:13.193Z,792.51
2019-03-11T00:31:17.288Z,792.51
2019-03-11T00:31:21.583Z,792.48
2019-03-11T00:31:25.873Z,792.48
2019-03-11T00:31:30.192Z,792.5
2019-03-11T00:31:34.509Z,792.46
2019-03-11T00:31:38.796Z,792.46
2019-03-11T00:31:42.990Z,792.43
2019-03-11T00:31:47.245Z,792.45
2019-03-11T00:31:51.559Z,792.47
2019-03-11T00:31:55.854Z,792.46
2019-03-11T00:32:00.148Z,792.45
2019-03-11T00:32:04.449Z,792.39
2019-03-11T00:32:08.752Z,792.42
2019-03-11T00:32:13.048Z,792.43
2019-03-11T00:32:17.342Z,792.44
2019-03-11T00:32:21.635Z,792.37
2019-03-11T00:32:25.926Z,792.44
2019-03-11T00:32:30.224Z,792.34
2019-03-11T00:32:34.521Z,792.35
2019-03-11T00:32:38.813Z,792.36
2019-03-11T00:32:43.104Z,792.34
2019-03-11T00:32:47.395Z,792.32
2019-03-11T00:32:51.688Z,792.34
2019-03-11T00:32:55.888Z,792.31
2019-03-11T00:33:00.183Z,792.35
2019-03-11T00:33:04.474Z,792.34
2019-03-11T00:33:08.772Z,792.32
2019-03-11T00:33:13.057Z,792.35
2019-03-11T00:33:17.350Z,792.32
2019-03-11T00:33:21.553Z,792.32
2019-03-11T00:33:25.839Z,792.25
2019-03-11T00:33:30.036Z,792.3
2019-03-11T00:33:34.335Z,792.28
2019-03-11T00:33:38.631Z,792.3
2019-03-11T00:33:42.930Z,792.28
2019-03-11T00:33:47.131Z,792.29
2019-03-11T00:33:51.329Z,792.23
2019-03-11T00:33:55.621Z,792.25
2019-03-11T00:33:59.911Z,792.23
2019-03-11T00:34:04.254Z,792.23
2019-03-11T00:34:08.538Z,792.13
2019-03-11T00:34:12.736Z,792.14
2019-03-11T00:34:17.026Z,792.15
2019-03-11T00:34:21.314Z,792.12
2019-03-11T00:34:25.513Z,792.15
2019-03-11T00:34:29.804Z,792.13
2019-03-11T00:34:34.096Z,792.14
2019-03-11T00:34:38.433Z,792.12
2019-03-11T00:34:42.722Z,792.12
2019-03-11T00:34:46.917Z,792.08
2019-03-11T00:34:51.209Z,792.13
2019-03-11T00:34:55.562Z,792.09
2019-03-11T00:34:59.850Z,792.07
2019-03-11T00:35:04.136Z,792.09
2019-03-11T00:35:08.330Z,792.08
2019-03-11T00:35:12.530Z,792.11
2019-03-11T00:35:16.862Z,792.11
2019-03-11T00:35:20.967Z,792.07
2019-03-11T00:35:25.262Z,792.09
2019-03-11T00:35:29.555Z,792.07
2019-03-11T00:35:33.855Z,792.08
2019-03-11T00:35:38.056Z,792.09
2019-03-11T00:35:42.354Z,792.05
2019-03-11T00:35:46.651Z,792.1
2019-03-11T00:35:50.948Z,792.05
2019-03-11T00:35:55.247Z,792.06
2019-03-11T00:35:59.533Z,792.02
2019-03-11T00:36:03.833Z,792.03
2019-03-11T00:36:08.023Z,791.99
2019-03-11T00:36:12.319Z,792.01
2019-03-11T00:36:16.394Z,792.01
2019-03-11T00:36:20.697Z,791.97
2019-03-11T00:36:24.989Z,791.99
2019-03-11T00:36:29.185Z,791.93
2019-03-11T00:36:33.477Z,791.98
2019-03-11T00:36:37.768Z,791.94
2019-03-11T00:36:42.060Z,791.91
2019-03-11T00:36:46.365Z,791.88
2019-03-11T00:36:50.768Z,791.92
2019-03-11T00:36:55.062Z,791.92
2019-03-11T00:36:59.371Z,791.89
2019-03-11T00:37:03.662Z,791.84
2019-03-11T00:37:07.774Z,791.88
2019-03-11T00:37:11.976Z,791.84
2019-03-11T00:37:16.261Z,791.83
2019-03-11T00:37:20.641Z,791.84
2019-03-11T00:37:24.934Z,791.86
2019-03-11T00:37:29.307Z,791.79
2019-03-11T00:37:33.597Z,791.77
2019-03-11T00:37:37.697Z,791.8
2019-03-11T00:37:42.056Z,791.81
2019-03-11T00:37:46.352Z,791.8
2019-03-11T00:37:50.656Z,791.8
2019-03-11T00:37:54.946Z,791.79
2019-03-11T00:37:59.239Z,791.81
2019-03-11T00:38:03.445Z,791.8
2019-03-11T00:38:07.638Z,791.78
2019-03-11T00:38:11.933Z,791.79
2019-03-11T00:38:16.221Z,791.77
2019-03-11T00:38:20.509Z,791.76
2019-03-11T00:38:24.809Z,791.79
2019-03-11T00:38:29.099Z,791.76
2019-03-11T00:38:33.414Z,791.77
2019-03-11T00:38:37.707Z,791.76
2019-03-11T00:38:42.004Z,791.75
2019-03-11T00:38:46.309Z,791.76
2019-03-11T00:38:50.614Z,791.75
2019-03-11T00:38:54.911Z,791.76
2019-03-11T00:38:59.100Z,791.74
2019-03-11T00:39:03.398Z,791.73
2019-03-11T00:39:07.688Z,791.7
2019-03-11T00:39:11.984Z,791.75
2019-03-11T00:39:16.272Z,791.73
2019-03-11T00:39:20.564Z,791.71
2019-03-11T00:39:24.865Z,791.76
2019-03-11T00:39:29.162Z,791.7
2019-03-11T00:39:33.450Z,791.69
2019-03-11T00:39:37.747Z,791.67
2019-03-11T00:39:42.038Z,791.66
2019-03-11T00:39:46.240Z,791.66
2019-03-11T00:39:50.533Z,791.61
2019-03-11T00:39:54.821Z,791.66
2019-03-11T00:39:59.111Z,791.62
2019-03-11T00:40:03.412Z,791.59
2019-03-11T00:40:07.767Z,791.63
2019-03-11T00:40:12.086Z,791.59
2019-03-11T00:40:16.277Z,791.56
2019-03-11T00:40:20.564Z,791.63
2019-03-11T00:40:24.869Z,791.62
2019-03-11T00:40:29.170Z,791.62
2019-03-11T00:40:33.268Z,791.64
2019-03-11T00:40:37.557Z,791.63
2019-03-11T00:40:41.844Z,791.63
2019-03-11T00:40:46.131Z,791.59
2019-03-11T00:40:50.431Z,791.59
2019-03-11T00:40:54.752Z,791.61
2019-03-11T00:40:59.049Z,791.59
2019-03-11T00:41:03.245Z,791.59
2019-03-11T00:41:07.594Z,791.61
2019-03-11T00:41:11.876Z,791.62
2019-03-11T00:41:16.069Z,791.59
2019-03-11T00:41:20.359Z,791.6
2019-03-11T00:41:24.648Z,791.6
2019-03-11T00:41:28.929Z,791.61
2019-03-11T00:41:33.217Z,791.55
2019-03-11T00:41:37.508Z,791.54
2019-03-11T00:41:41.801Z,791.54
2019-03-11T00:41:46.117Z,791.47
2019-03-11T00:41:50.399Z,791.54
2019-03-11T00:41:54.694Z,791.52
2019-03-11T00:41:58.981Z,791.55
2019-03-11T00:42:03.282Z,791.51
2019-03-11T00:42:07.653Z,791.51
2019-03-11T00:42:11.954Z,791.51
2019-03-11T00:42:16.241Z,791.52
2019-03-11T00:42:20.534Z,791.48
2019-03-11T00:42:24.822Z,791.49
2019-03-11T00:42:29.106Z,791.54
2019-03-11T00:42:33.297Z,791.49
2019-03-11T00:42:37.665Z,791.5
2019-03-11T00:42:41.862Z,791.48
2019-03-11T00:42:46.175Z,791.5
2019-03-11T00:42:50.469Z,791.49
2019-03-11T00:42:54.828Z,791.5
2019-03-11T00:42:59.021Z,791.49
2019-03-11T00:43:03.212Z,791.49
2019-03-11T00:43:07.513Z,791.48
2019-03-11T00:43:11.805Z,791.5
2019-03-11T00:43:16.186Z,791.52
2019-03-11T00:43:20.471Z,791.48
2019-03-11T00:43:24.777Z,791.5
2019-03-11T00:43:29.062Z,791.52
2019-03-11T00:43:33.353Z,791.5
2019-03-11T00:43:37.645Z,791.51
2019-03-11T00:43:41.938Z,791.52
2019-03-11T00:43:46.233Z,791.49
2019-03-11T00:43:50.524Z,791.5
2019-03-11T00:43:54.827Z,791.51
2019-03-11T00:43:59.113Z,791.48
2019-03-11T00:44:03.569Z,791.54
2019-03-11T00:44:07.899Z,791.53
2019-03-11T00:44:12.192Z,791.51
2019-03-11T00:44:16.481Z,791.48
2019-03-11T00:44:20.834Z,791.5
2019-03-11T00:44:25.141Z,791.53
2019-03-11T00:44:29.433Z,791.45
2019-03-11T00:44:33.539Z,791.47
2019-03-11T00:44:37.733Z,791.5
2019-03-11T00:44:42.035Z,791.49
2019-03-11T00:44:46.348Z,791.5
2019-03-11T00:44:50.658Z,791.48
2019-03-11T00:44:54.948Z,791.49
2019-03-11T00:44:59.249Z,791.47
2019-03-11T00:45:03.587Z,791.49
2019-03-11T00:45:07.781Z,791.51
2019-03-11T00:45:12.070Z,791.51
2019-03-11T00:45:16.270Z,791.52
2019-03-11T00:45:20.568Z,791.5
2019-03-11T00:45:27.311Z,791.49
2019-03-11T00:45:31.599Z,791.45
2019-03-11T00:45:35.907Z,791.47
2019-03-11T00:45:40.215Z,791.5
2019-03-11T00:45:44.573Z,791.52
2019-03-11T00:45:48.888Z,791.49
2019-03-11T00:45:53.180Z,791.49
2019-03-11T00:45:57.466Z,791.5
2019-03-11T00:46:01.863Z,791.51
2019-03-11T00:46:06.198Z,791.46
2019-03-11T00:46:10.501Z,791.48
2019-03-11T00:46:14.788Z,791.5
2019-03-11T00:46:18.979Z,791.48
2019-03-11T00:46:23.267Z,791.53
2019-03-11T00:46:27.456Z,791.5
2019-03-11T00:46:31.753Z,791.49
2019-03-11T00:46:36.045Z,791.5
2019-03-11T00:46:40.339Z,791.53
2019-03-11T00:46:44.646Z,791.49
2019-03-11T00:46:48.939Z,791.5
2019-03-11T00:46:53.127Z,791.49
2019-03-11T00:46:57.412Z,791.52
2019-03-11T00:47:01.613Z,791.48
2019-03-11T00:47:05.825Z,791.52
2019-03-11T00:47:10.145Z,791.52
2019-03-11T00:47:14.447Z,791.5
2019-03-11T00:47:18.741Z,791.48
2019-03-11T00:47:23.063Z,791.49
2019-03-11T00:47:27.356Z,791.52
2019-03-11T00:47:31.644Z,791.51
2019-03-11T00:47:35.949Z,791.48
2019-03-11T00:47:40.244Z,791.49
2019-03-11T00:47:44.553Z,791.5
2019-03-11T00:47:48.851Z,791.5
2019-03-11T00:48:04.922Z,791.48
2019-03-11T00:48:09.219Z,791.46
2019-03-11T00:48:13.520Z,791.52
2019-03-11T00:48:17.730Z,791.53
2019-03-11T00:48:22.025Z,791.51
2019-03-11T00:48:26.229Z,791.51
2019-03-11T00:48:30.544Z,791.53
2019-03-11T00:48:34.832Z,791.54
2019-03-11T00:48:39.124Z,791.5
2019-03-11T00:48:43.422Z,791.54
2019-03-11T00:48:47.715Z,791.49
2019-03-11T00:48:52.014Z,791.53
2019-03-11T00:48:56.305Z,791.52
2019-03-11T00:49:00.594Z,791.46
2019-03-11T00:49:04.793Z,791.48
2019-03-11T00:49:09.086Z,791.47
2019-03-11T00:49:13.400Z,791.51
2019-03-11T00:49:17.685Z,791.52
2019-03-11T00:49:21.978Z,791.5
2019-03-11T00:49:26.282Z,791.52
2019-03-11T00:49:30.568Z,791.52
2019-03-11T00:49:34.870Z,791.56
2019-03-11T00:49:39.181Z,791.47
2019-03-11T00:49:43.480Z,791.52
2019-03-11T00:49:47.768Z,791.54
2019-03-11T00:49:52.082Z,791.56
2019-03-11T00:49:56.282Z,791.55
2019-03-11T00:50:00.580Z,791.56
2019-03-11T00:50:04.932Z,791.58
2019-03-11T00:50:09.226Z,791.57
2019-03-11T00:50:13.432Z,791.57
2019-03-11T00:50:17.627Z,791.61
2019-03-11T00:50:21.919Z,791.56
2019-03-11T00:50:26.213Z,791.57
2019-03-11T00:50:30.502Z,791.62
2019-03-11T00:50:34.814Z,791.61
2019-03-11T00:50:39.005Z,791.6
2019-03-11T00:50:43.300Z,791.61
2019-03-11T00:50:47.584Z,791.63
2019-03-11T00:50:51.867Z,791.62
2019-03-11T00:50:56.180Z,791.61
2019-03-11T00:51:00.472Z,791.66
2019-03-11T00:51:04.777Z,791.62
2019-03-11T00:51:09.066Z,791.6
2019-03-11T00:51:13.355Z,791.67
2019-03-11T00:51:17.552Z,791.67
2019-03-11T00:51:21.841Z,791.66
2019-03-11T00:51:26.138Z,791.67
2019-03-11T00:51:30.438Z,791.63
2019-03-11T00:51:34.626Z,791.68
2019-03-11T00:51:38.917Z,791.69
2019-03-11T00:51:43.212Z,791.67
2019-03-11T00:51:47.418Z,791.68
2019-03-11T00:51:51.704Z,791.7
2019-03-11T00:51:56.063Z,791.66
2019-03-11T00:52:00.351Z,791.67
2019-03-11T00:52:04.649Z,791.65
2019-03-11T00:52:08.948Z,791.68
2019-03-11T00:52:13.250Z,791.7
2019-03-11T00:52:17.540Z,791.65
2019-03-11T00:52:21.846Z,791.65
2019-03-11T00:52:26.447Z,791.6
2019-03-11T00:52:31.077Z,791.63
2019-03-11T00:52:35.942Z,791.66
2019-03-11T00:52:40.897Z,791.6
2019-03-11T00:52:46.209Z,791.68
2019-03-11T00:52:50.924Z,791.6
2019-03-11T00:52:55.219Z,791.62
2019-03-11T00:52:59.531Z,791.65
2019-03-11T00:53:03.833Z,791.64
2019-03-11T00:53:08.123Z,791.66
2019-03-11T00:53:12.412Z,791.64
2019-03-11T00:53:16.713Z,791.66
2019-03-11T00:53:21.019Z,791.68
2019-03-11T00:53:25.325Z,791.69
2019-03-11T00:53:29.624Z,791.66
2019-03-11T00:53:33.913Z,791.68
2019-03-11T00:53:38.201Z,791.65
2019-03-11T00:53:42.494Z,791.69
2019-03-11T00:53:46.692Z,791.66
2019-03-11T00:53:50.992Z,791.67
2019-03-11T00:53:55.287Z,791.7
2019-03-11T00:53:59.634Z,791.67
2019-03-11T00:54:03.947Z,791.7
2019-03-11T00:54:08.237Z,791.68
2019-03-11T00:54:12.532Z,791.7
2019-03-11T00:54:16.826Z,791.69
2019-03-11T00:54:21.116Z,791.7
2019-03-11T00:54:25.413Z,791.71
2019-03-11T00:54:29.718Z,791.68
2019-03-11T00:54:33.935Z,791.71